sensor_id;sensor_type;location;lat;lon;timestamp;P1;durP1;ratioP1;P2;durP2;ratioP2
64401;SDS011;50724;42.376;23.768;2024-02-04T00:02:29;4.88;;;2.35;;
64401;SDS011;50724;42.376;23.768;2024-02-04T00:05:30;4.35;;;2.20;;
64401;SDS011;50724;42.376;23.768;2024-02-04T00:08:30;4.85;;;2.50;;
64401;SDS011;50724;42.376;23.768;2024-02-04T00:11:31;3.85;;;2.05;;
64401;SDS011;50724;42.376;23.768;2024-02-04T00:14:32;5.05;;;2.22;;
64401;SDS011;50724;42.376;23.768;2024-02-04T00:17:32;5.05;;;1.90;;
64401;SDS011;50724;42.376;23.768;2024-02-04T00:20:34;4.85;;;2.03;;
64401;SDS011;50724;42.376;23.768;2024-02-04T00:23:34;4.03;;;2.08;;
64401;SDS011;50724;42.376;23.768;2024-02-04T00:26:35;5.90;;;2.25;;
64401;SDS011;50724;42.376;23.768;2024-02-04T00:29:35;6.03;;;2.20;;
64401;SDS011;50724;42.376;23.768;2024-02-04T00:32:48;5.43;;;2.13;;
64401;SDS011;50724;42.376;23.768;2024-02-04T00:35:48;5.03;;;2.15;;
64401;SDS011;50724;42.376;23.768;2024-02-04T00:38:49;5.57;;;2.38;;
64401;SDS011;50724;42.376;23.768;2024-02-04T00:41:49;7.50;;;1.95;;
64401;SDS011;50724;42.376;23.768;2024-02-04T00:44:50;7.75;;;2.30;;
64401;SDS011;50724;42.376;23.768;2024-02-04T00:47:50;5.28;;;1.98;;
64401;SDS011;50724;42.376;23.768;2024-02-04T00:50:51;4.18;;;1.90;;
64401;SDS011;50724;42.376;23.768;2024-02-04T00:53:51;4.55;;;2.30;;
64401;SDS011;50724;42.376;23.768;2024-02-04T00:56:53;4.70;;;2.17;;
64401;SDS011;50724;42.376;23.768;2024-02-04T00:59:55;3.90;;;2.00;;
64401;SDS011;50724;42.376;23.768;2024-02-04T01:02:55;4.38;;;2.38;;
64401;SDS011;50724;42.376;23.768;2024-02-04T01:05:56;4.93;;;2.20;;
64401;SDS011;50724;42.376;23.768;2024-02-04T01:08:57;4.55;;;2.13;;
64401;SDS011;50724;42.376;23.768;2024-02-04T01:11:57;5.35;;;2.53;;
64401;SDS011;50724;42.376;23.768;2024-02-04T01:14:58;5.20;;;1.98;;
64401;SDS011;50724;42.376;23.768;2024-02-04T01:17:58;7.30;;;2.75;;
64401;SDS011;50724;42.376;23.768;2024-02-04T01:20:59;6.10;;;2.65;;
64401;SDS011;50724;42.376;23.768;2024-02-04T01:24:00;5.72;;;2.70;;
64401;SDS011;50724;42.376;23.768;2024-02-04T01:27:01;5.53;;;2.78;;
64401;SDS011;50724;42.376;23.768;2024-02-04T01:30:01;4.55;;;2.13;;
64401;SDS011;50724;42.376;23.768;2024-02-04T01:33:03;4.05;;;1.92;;
64401;SDS011;50724;42.376;23.768;2024-02-04T01:36:04;4.40;;;2.35;;
64401;SDS011;50724;42.376;23.768;2024-02-04T01:39:04;5.07;;;2.83;;
64401;SDS011;50724;42.376;23.768;2024-02-04T01:42:05;8.88;;;2.60;;
64401;SDS011;50724;42.376;23.768;2024-02-04T01:45:06;6.88;;;2.83;;
64401;SDS011;50724;42.376;23.768;2024-02-04T01:48:07;5.63;;;2.70;;
64401;SDS011;50724;42.376;23.768;2024-02-04T01:51:08;6.35;;;2.53;;
64401;SDS011;50724;42.376;23.768;2024-02-04T01:54:10;5.22;;;2.47;;
64401;SDS011;50724;42.376;23.768;2024-02-04T01:57:10;5.68;;;2.60;;
64401;SDS011;50724;42.376;23.768;2024-02-04T02:00:12;5.70;;;2.58;;
64401;SDS011;50724;42.376;23.768;2024-02-04T02:03:13;6.70;;;2.67;;
64401;SDS011;50724;42.376;23.768;2024-02-04T02:06:15;7.05;;;2.85;;
64401;SDS011;50724;42.376;23.768;2024-02-04T02:09:15;5.30;;;2.53;;
64401;SDS011;50724;42.376;23.768;2024-02-04T02:12:18;4.55;;;2.40;;
64401;SDS011;50724;42.376;23.768;2024-02-04T02:15:32;4.63;;;2.25;;
64401;SDS011;50724;42.376;23.768;2024-02-04T02:21:56;4.35;;;2.20;;
64401;SDS011;50724;42.376;23.768;2024-02-04T02:25:00;6.80;;;2.58;;
64401;SDS011;50724;42.376;23.768;2024-02-04T02:28:04;4.65;;;2.10;;
64401;SDS011;50724;42.376;23.768;2024-02-04T02:31:06;6.85;;;2.50;;
64401;SDS011;50724;42.376;23.768;2024-02-04T02:34:06;4.30;;;2.50;;
64401;SDS011;50724;42.376;23.768;2024-02-04T02:40:51;6.05;;;2.65;;
64401;SDS011;50724;42.376;23.768;2024-02-04T02:43:58;6.13;;;2.67;;
64401;SDS011;50724;42.376;23.768;2024-02-04T02:47:00;3.60;;;2.22;;
64401;SDS011;50724;42.376;23.768;2024-02-04T02:50:03;5.38;;;2.92;;
64401;SDS011;50724;42.376;23.768;2024-02-04T02:53:06;5.47;;;2.40;;
64401;SDS011;50724;42.376;23.768;2024-02-04T02:56:06;4.82;;;2.60;;
64401;SDS011;50724;42.376;23.768;2024-02-04T02:59:07;5.63;;;2.75;;
64401;SDS011;50724;42.376;23.768;2024-02-04T03:02:08;4.43;;;2.53;;
64401;SDS011;50724;42.376;23.768;2024-02-04T03:05:08;5.32;;;2.70;;
64401;SDS011;50724;42.376;23.768;2024-02-04T03:08:09;6.50;;;3.85;;
64401;SDS011;50724;42.376;23.768;2024-02-04T03:11:10;5.15;;;2.53;;
64401;SDS011;50724;42.376;23.768;2024-02-04T03:14:10;4.53;;;2.05;;
64401;SDS011;50724;42.376;23.768;2024-02-04T03:17:11;5.55;;;2.65;;
64401;SDS011;50724;42.376;23.768;2024-02-04T03:20:12;4.97;;;2.53;;
64401;SDS011;50724;42.376;23.768;2024-02-04T03:23:13;4.50;;;2.22;;
64401;SDS011;50724;42.376;23.768;2024-02-04T03:26:16;3.58;;;2.13;;
64401;SDS011;50724;42.376;23.768;2024-02-04T03:29:20;5.65;;;2.45;;
64401;SDS011;50724;42.376;23.768;2024-02-04T03:32:21;5.60;;;2.38;;
64401;SDS011;50724;42.376;23.768;2024-02-04T03:35:21;4.43;;;2.50;;
64401;SDS011;50724;42.376;23.768;2024-02-04T03:38:22;4.13;;;2.40;;
64401;SDS011;50724;42.376;23.768;2024-02-04T03:41:22;5.43;;;2.65;;
64401;SDS011;50724;42.376;23.768;2024-02-04T03:44:23;6.10;;;2.08;;
64401;SDS011;50724;42.376;23.768;2024-02-04T03:47:23;7.45;;;3.10;;
64401;SDS011;50724;42.376;23.768;2024-02-04T03:50:24;4.93;;;2.08;;
64401;SDS011;50724;42.376;23.768;2024-02-04T03:53:24;4.45;;;2.30;;
64401;SDS011;50724;42.376;23.768;2024-02-04T03:56:25;2.97;;;1.95;;
64401;SDS011;50724;42.376;23.768;2024-02-04T03:59:26;4.75;;;2.20;;
64401;SDS011;50724;42.376;23.768;2024-02-04T04:02:26;4.25;;;2.13;;
64401;SDS011;50724;42.376;23.768;2024-02-04T04:05:27;4.75;;;1.90;;
64401;SDS011;50724;42.376;23.768;2024-02-04T04:08:27;4.35;;;2.13;;
64401;SDS011;50724;42.376;23.768;2024-02-04T04:11:28;4.18;;;1.83;;
64401;SDS011;50724;42.376;23.768;2024-02-04T04:14:28;5.05;;;2.58;;
64401;SDS011;50724;42.376;23.768;2024-02-04T04:17:29;4.25;;;2.63;;
64401;SDS011;50724;42.376;23.768;2024-02-04T04:20:29;3.50;;;1.80;;
64401;SDS011;50724;42.376;23.768;2024-02-04T04:23:30;3.97;;;1.92;;
64401;SDS011;50724;42.376;23.768;2024-02-04T04:26:30;4.90;;;2.20;;
64401;SDS011;50724;42.376;23.768;2024-02-04T04:29:31;3.25;;;1.75;;
64401;SDS011;50724;42.376;23.768;2024-02-04T04:32:32;4.93;;;2.30;;
64401;SDS011;50724;42.376;23.768;2024-02-04T04:35:32;3.97;;;2.20;;
64401;SDS011;50724;42.376;23.768;2024-02-04T04:38:42;4.38;;;2.28;;
64401;SDS011;50724;42.376;23.768;2024-02-04T04:41:43;3.30;;;1.77;;
64401;SDS011;50724;42.376;23.768;2024-02-04T04:47:45;2.97;;;1.40;;
64401;SDS011;50724;42.376;23.768;2024-02-04T04:50:46;3.38;;;2.08;;
64401;SDS011;50724;42.376;23.768;2024-02-04T04:53:46;3.83;;;1.92;;
64401;SDS011;50724;42.376;23.768;2024-02-04T04:56:47;3.42;;;1.60;;
64401;SDS011;50724;42.376;23.768;2024-02-04T04:59:56;4.57;;;2.15;;
64401;SDS011;50724;42.376;23.768;2024-02-04T05:03:00;3.38;;;1.77;;
64401;SDS011;50724;42.376;23.768;2024-02-04T05:06:01;3.75;;;1.80;;
64401;SDS011;50724;42.376;23.768;2024-02-04T05:09:01;4.60;;;1.88;;
64401;SDS011;50724;42.376;23.768;2024-02-04T05:12:02;3.60;;;2.00;;
64401;SDS011;50724;42.376;23.768;2024-02-04T05:15:04;4.07;;;1.80;;
64401;SDS011;50724;42.376;23.768;2024-02-04T05:18:05;4.22;;;1.73;;
64401;SDS011;50724;42.376;23.768;2024-02-04T05:21:06;4.05;;;1.83;;
64401;SDS011;50724;42.376;23.768;2024-02-04T05:24:06;4.30;;;2.08;;
64401;SDS011;50724;42.376;23.768;2024-02-04T05:27:07;3.58;;;1.60;;
64401;SDS011;50724;42.376;23.768;2024-02-04T05:30:08;3.70;;;1.65;;
64401;SDS011;50724;42.376;23.768;2024-02-04T05:33:09;2.97;;;1.55;;
64401;SDS011;50724;42.376;23.768;2024-02-04T05:36:13;5.07;;;2.00;;
64401;SDS011;50724;42.376;23.768;2024-02-04T05:39:14;5.30;;;1.80;;
64401;SDS011;50724;42.376;23.768;2024-02-04T05:42:16;3.13;;;1.73;;
64401;SDS011;50724;42.376;23.768;2024-02-04T05:45:16;4.70;;;2.05;;
64401;SDS011;50724;42.376;23.768;2024-02-04T05:48:17;4.85;;;2.40;;
64401;SDS011;50724;42.376;23.768;2024-02-04T05:51:18;3.65;;;2.08;;
64401;SDS011;50724;42.376;23.768;2024-02-04T05:54:18;3.45;;;1.80;;
64401;SDS011;50724;42.376;23.768;2024-02-04T05:57:19;4.80;;;2.10;;
64401;SDS011;50724;42.376;23.768;2024-02-04T06:00:20;3.95;;;2.15;;
64401;SDS011;50724;42.376;23.768;2024-02-04T06:03:21;3.80;;;1.95;;
64401;SDS011;50724;42.376;23.768;2024-02-04T06:06:21;4.18;;;1.90;;
64401;SDS011;50724;42.376;23.768;2024-02-04T06:09:22;3.15;;;1.65;;
64401;SDS011;50724;42.376;23.768;2024-02-04T06:12:22;3.53;;;2.10;;
64401;SDS011;50724;42.376;23.768;2024-02-04T06:15:23;4.60;;;1.80;;
64401;SDS011;50724;42.376;23.768;2024-02-04T06:18:23;6.00;;;2.38;;
64401;SDS011;50724;42.376;23.768;2024-02-04T06:21:24;4.13;;;1.80;;
64401;SDS011;50724;42.376;23.768;2024-02-04T06:24:25;3.17;;;1.70;;
64401;SDS011;50724;42.376;23.768;2024-02-04T06:27:25;2.90;;;1.73;;
64401;SDS011;50724;42.376;23.768;2024-02-04T06:30:26;2.40;;;1.40;;
64401;SDS011;50724;42.376;23.768;2024-02-04T06:33:26;4.10;;;1.92;;
64401;SDS011;50724;42.376;23.768;2024-02-04T06:36:27;3.50;;;1.50;;
64401;SDS011;50724;42.376;23.768;2024-02-04T06:39:28;3.00;;;1.60;;
64401;SDS011;50724;42.376;23.768;2024-02-04T06:42:28;2.67;;;1.50;;
64401;SDS011;50724;42.376;23.768;2024-02-04T06:45:29;2.53;;;1.45;;
64401;SDS011;50724;42.376;23.768;2024-02-04T06:48:29;4.22;;;1.60;;
64401;SDS011;50724;42.376;23.768;2024-02-04T06:51:30;2.90;;;1.33;;
64401;SDS011;50724;42.376;23.768;2024-02-04T06:54:31;3.42;;;1.50;;
64401;SDS011;50724;42.376;23.768;2024-02-04T06:57:31;3.55;;;2.00;;
64401;SDS011;50724;42.376;23.768;2024-02-04T07:00:31;3.38;;;1.75;;
64401;SDS011;50724;42.376;23.768;2024-02-04T07:03:32;2.20;;;1.40;;
64401;SDS011;50724;42.376;23.768;2024-02-04T07:06:33;3.67;;;1.80;;
64401;SDS011;50724;42.376;23.768;2024-02-04T07:09:33;2.80;;;1.38;;
64401;SDS011;50724;42.376;23.768;2024-02-04T07:12:33;4.00;;;1.40;;
64401;SDS011;50724;42.376;23.768;2024-02-04T07:15:34;2.67;;;1.33;;
64401;SDS011;50724;42.376;23.768;2024-02-04T07:18:43;1.98;;;1.33;;
64401;SDS011;50724;42.376;23.768;2024-02-04T07:21:43;2.20;;;1.10;;
64401;SDS011;50724;42.376;23.768;2024-02-04T07:24:44;2.80;;;1.58;;
64401;SDS011;50724;42.376;23.768;2024-02-04T07:27:45;2.60;;;1.25;;
64401;SDS011;50724;42.376;23.768;2024-02-04T07:30:45;3.13;;;1.48;;
64401;SDS011;50724;42.376;23.768;2024-02-04T07:33:46;1.40;;;1.10;;
64401;SDS011;50724;42.376;23.768;2024-02-04T07:36:46;2.75;;;1.42;;
64401;SDS011;50724;42.376;23.768;2024-02-04T07:39:47;3.42;;;1.60;;
64401;SDS011;50724;42.376;23.768;2024-02-04T07:42:48;3.08;;;1.50;;
64401;SDS011;50724;42.376;23.768;2024-02-04T07:45:48;2.75;;;1.63;;
64401;SDS011;50724;42.376;23.768;2024-02-04T07:48:49;3.58;;;1.58;;
64401;SDS011;50724;42.376;23.768;2024-02-04T07:51:50;3.00;;;1.52;;
64401;SDS011;50724;42.376;23.768;2024-02-04T07:54:59;3.20;;;1.50;;
64401;SDS011;50724;42.376;23.768;2024-02-04T07:57:59;3.63;;;1.73;;
64401;SDS011;50724;42.376;23.768;2024-02-04T08:01:00;2.60;;;1.38;;
64401;SDS011;50724;42.376;23.768;2024-02-04T08:04:00;3.00;;;1.52;;
64401;SDS011;50724;42.376;23.768;2024-02-04T08:07:02;3.22;;;1.50;;
64401;SDS011;50724;42.376;23.768;2024-02-04T08:10:03;2.85;;;1.52;;
64401;SDS011;50724;42.376;23.768;2024-02-04T08:13:04;2.92;;;1.40;;
64401;SDS011;50724;42.376;23.768;2024-02-04T08:16:04;2.83;;;1.53;;
64401;SDS011;50724;42.376;23.768;2024-02-04T08:19:05;2.70;;;1.38;;
64401;SDS011;50724;42.376;23.768;2024-02-04T08:22:06;2.63;;;1.30;;
64401;SDS011;50724;42.376;23.768;2024-02-04T08:25:07;3.05;;;1.40;;
64401;SDS011;50724;42.376;23.768;2024-02-04T08:28:10;2.60;;;1.30;;
64401;SDS011;50724;42.376;23.768;2024-02-04T08:31:20;1.85;;;1.10;;
64401;SDS011;50724;42.376;23.768;2024-02-04T08:34:21;3.83;;;1.60;;
64401;SDS011;50724;42.376;23.768;2024-02-04T08:37:24;2.65;;;1.27;;
64401;SDS011;50724;42.376;23.768;2024-02-04T08:40:24;2.13;;;1.20;;
64401;SDS011;50724;42.376;23.768;2024-02-04T08:43:24;1.90;;;1.02;;
64401;SDS011;50724;42.376;23.768;2024-02-04T08:46:25;3.20;;;1.30;;
64401;SDS011;50724;42.376;23.768;2024-02-04T08:49:25;2.95;;;1.50;;
64401;SDS011;50724;42.376;23.768;2024-02-04T08:52:26;2.13;;;1.20;;
64401;SDS011;50724;42.376;23.768;2024-02-04T08:55:28;2.60;;;1.45;;
64401;SDS011;50724;42.376;23.768;2024-02-04T08:58:28;2.20;;;1.30;;
64401;SDS011;50724;42.376;23.768;2024-02-04T09:01:29;1.90;;;1.23;;
64401;SDS011;50724;42.376;23.768;2024-02-04T09:04:29;2.08;;;1.23;;
64401;SDS011;50724;42.376;23.768;2024-02-04T09:07:30;3.00;;;1.20;;
64401;SDS011;50724;42.376;23.768;2024-02-04T09:10:31;2.83;;;1.50;;
64401;SDS011;50724;42.376;23.768;2024-02-04T09:13:31;3.58;;;1.23;;
64401;SDS011;50724;42.376;23.768;2024-02-04T09:16:32;2.15;;;1.10;;
64401;SDS011;50724;42.376;23.768;2024-02-04T09:19:33;2.53;;;1.02;;
64401;SDS011;50724;42.376;23.768;2024-02-04T09:22:33;3.42;;;1.30;;
64401;SDS011;50724;42.376;23.768;2024-02-04T09:25:51;2.10;;;1.15;;
64401;SDS011;50724;42.376;23.768;2024-02-04T09:28:51;2.78;;;1.30;;
64401;SDS011;50724;42.376;23.768;2024-02-04T09:31:52;2.28;;;1.25;;
64401;SDS011;50724;42.376;23.768;2024-02-04T09:34:54;2.92;;;1.20;;
64401;SDS011;50724;42.376;23.768;2024-02-04T09:37:54;1.00;;;0.80;;
64401;SDS011;50724;42.376;23.768;2024-02-04T09:40:54;2.67;;;0.98;;
64401;SDS011;50724;42.376;23.768;2024-02-04T09:43:55;1.15;;;0.80;;
64401;SDS011;50724;42.376;23.768;2024-02-04T09:46:57;2.22;;;1.05;;
64401;SDS011;50724;42.376;23.768;2024-02-04T09:49:59;1.83;;;1.00;;
64401;SDS011;50724;42.376;23.768;2024-02-04T09:53:00;1.48;;;0.80;;
64401;SDS011;50724;42.376;23.768;2024-02-04T09:56:05;2.08;;;1.05;;
64401;SDS011;50724;42.376;23.768;2024-02-04T09:59:08;2.70;;;1.20;;
64401;SDS011;50724;42.376;23.768;2024-02-04T10:02:08;3.92;;;1.00;;
64401;SDS011;50724;42.376;23.768;2024-02-04T10:05:10;1.55;;;0.90;;
64401;SDS011;50724;42.376;23.768;2024-02-04T10:08:10;1.58;;;0.90;;
64401;SDS011;50724;42.376;23.768;2024-02-04T10:11:11;1.40;;;0.88;;
64401;SDS011;50724;42.376;23.768;2024-02-04T10:14:11;1.20;;;0.80;;
64401;SDS011;50724;42.376;23.768;2024-02-04T10:17:13;1.58;;;1.00;;
64401;SDS011;50724;42.376;23.768;2024-02-04T10:20:15;2.03;;;1.10;;
64401;SDS011;50724;42.376;23.768;2024-02-04T10:23:16;2.72;;;1.00;;
64401;SDS011;50724;42.376;23.768;2024-02-04T10:26:16;2.20;;;1.00;;
64401;SDS011;50724;42.376;23.768;2024-02-04T10:29:19;1.52;;;0.70;;
64401;SDS011;50724;42.376;23.768;2024-02-04T10:32:21;1.35;;;0.82;;
64401;SDS011;50724;42.376;23.768;2024-02-04T10:35:23;1.58;;;0.90;;
64401;SDS011;50724;42.376;23.768;2024-02-04T10:38:24;2.10;;;1.10;;
64401;SDS011;50724;42.376;23.768;2024-02-04T10:41:33;1.85;;;1.00;;
64401;SDS011;50724;42.376;23.768;2024-02-04T10:44:35;3.42;;;1.13;;
64401;SDS011;50724;42.376;23.768;2024-02-04T10:47:37;3.92;;;1.40;;
64401;SDS011;50724;42.376;23.768;2024-02-04T10:50:39;2.08;;;1.10;;
64401;SDS011;50724;42.376;23.768;2024-02-04T10:53:43;1.92;;;1.13;;
64401;SDS011;50724;42.376;23.768;2024-02-04T10:56:44;2.85;;;1.30;;
64401;SDS011;50724;42.376;23.768;2024-02-04T10:59:49;3.83;;;1.10;;
64401;SDS011;50724;42.376;23.768;2024-02-04T11:02:52;2.25;;;1.10;;
64401;SDS011;50724;42.376;23.768;2024-02-04T11:05:54;3.85;;;1.58;;
64401;SDS011;50724;42.376;23.768;2024-02-04T11:08:55;1.60;;;1.00;;
64401;SDS011;50724;42.376;23.768;2024-02-04T11:11:58;2.55;;;1.35;;
64401;SDS011;50724;42.376;23.768;2024-02-04T11:15:01;3.55;;;1.02;;
64401;SDS011;50724;42.376;23.768;2024-02-04T11:28:10;6.45;;;1.60;;
64401;SDS011;50724;42.376;23.768;2024-02-04T11:31:17;4.38;;;1.42;;
64401;SDS011;50724;42.376;23.768;2024-02-04T11:34:19;3.22;;;1.80;;
64401;SDS011;50724;42.376;23.768;2024-02-04T11:40:20;3.20;;;1.33;;
64401;SDS011;50724;42.376;23.768;2024-02-04T11:43:23;2.90;;;1.60;;
64401;SDS011;50724;42.376;23.768;2024-02-04T11:46:27;3.78;;;1.60;;
64401;SDS011;50724;42.376;23.768;2024-02-04T11:49:32;3.53;;;1.52;;
64401;SDS011;50724;42.376;23.768;2024-02-04T11:52:33;3.50;;;1.67;;
64401;SDS011;50724;42.376;23.768;2024-02-04T11:55:34;3.53;;;1.70;;
64401;SDS011;50724;42.376;23.768;2024-02-04T11:58:39;5.18;;;1.70;;
64401;SDS011;50724;42.376;23.768;2024-02-04T12:01:40;6.63;;;1.70;;
64401;SDS011;50724;42.376;23.768;2024-02-04T12:04:41;3.70;;;1.65;;
64401;SDS011;50724;42.376;23.768;2024-02-04T12:07:43;3.17;;;1.52;;
64401;SDS011;50724;42.376;23.768;2024-02-04T12:10:43;3.55;;;1.60;;
64401;SDS011;50724;42.376;23.768;2024-02-04T12:13:45;5.05;;;1.92;;
64401;SDS011;50724;42.376;23.768;2024-02-04T12:16:45;3.90;;;1.40;;
64401;SDS011;50724;42.376;23.768;2024-02-04T12:19:45;2.17;;;1.13;;
64401;SDS011;50724;42.376;23.768;2024-02-04T12:22:46;2.92;;;1.13;;
64401;SDS011;50724;42.376;23.768;2024-02-04T12:25:49;5.22;;;1.85;;
64401;SDS011;50724;42.376;23.768;2024-02-04T12:28:52;3.42;;;1.50;;
64401;SDS011;50724;42.376;23.768;2024-02-04T12:32:02;2.85;;;1.52;;
64401;SDS011;50724;42.376;23.768;2024-02-04T12:35:04;2.70;;;1.35;;
64401;SDS011;50724;42.376;23.768;2024-02-04T12:38:06;2.53;;;1.20;;
64401;SDS011;50724;42.376;23.768;2024-02-04T12:41:07;2.58;;;1.40;;
64401;SDS011;50724;42.376;23.768;2024-02-04T12:44:07;2.45;;;1.20;;
64401;SDS011;50724;42.376;23.768;2024-02-04T12:47:08;2.42;;;1.10;;
64401;SDS011;50724;42.376;23.768;2024-02-04T12:50:10;2.92;;;1.35;;
64401;SDS011;50724;42.376;23.768;2024-02-04T12:53:12;3.25;;;1.60;;
64401;SDS011;50724;42.376;23.768;2024-02-04T12:56:13;4.18;;;1.33;;
64401;SDS011;50724;42.376;23.768;2024-02-04T13:02:34;3.20;;;1.30;;
64401;SDS011;50724;42.376;23.768;2024-02-04T13:05:35;3.92;;;1.10;;
64401;SDS011;50724;42.376;23.768;2024-02-04T13:08:39;2.15;;;1.10;;
64401;SDS011;50724;42.376;23.768;2024-02-04T13:11:39;1.48;;;0.90;;
64401;SDS011;50724;42.376;23.768;2024-02-04T13:14:41;4.82;;;1.20;;
64401;SDS011;50724;42.376;23.768;2024-02-04T13:17:42;2.17;;;1.05;;
64401;SDS011;50724;42.376;23.768;2024-02-04T13:20:42;1.58;;;1.00;;
64401;SDS011;50724;42.376;23.768;2024-02-04T13:23:43;2.50;;;0.90;;
64401;SDS011;50724;42.376;23.768;2024-02-04T13:26:43;2.27;;;1.00;;
64401;SDS011;50724;42.376;23.768;2024-02-04T13:29:44;3.88;;;1.10;;
64401;SDS011;50724;42.376;23.768;2024-02-04T13:32:44;1.02;;;0.90;;
64401;SDS011;50724;42.376;23.768;2024-02-04T13:35:45;1.80;;;1.20;;
64401;SDS011;50724;42.376;23.768;2024-02-04T13:38:48;1.45;;;1.00;;
64401;SDS011;50724;42.376;23.768;2024-02-04T13:41:49;1.58;;;0.90;;
64401;SDS011;50724;42.376;23.768;2024-02-04T13:44:49;2.13;;;1.20;;
64401;SDS011;50724;42.376;23.768;2024-02-04T13:47:50;2.88;;;1.27;;
64401;SDS011;50724;42.376;23.768;2024-02-04T13:50:50;1.83;;;1.33;;
64401;SDS011;50724;42.376;23.768;2024-02-04T13:53:59;1.13;;;1.02;;
64401;SDS011;50724;42.376;23.768;2024-02-04T13:56:59;1.92;;;1.20;;
64401;SDS011;50724;42.376;23.768;2024-02-04T14:00:00;2.05;;;1.10;;
64401;SDS011;50724;42.376;23.768;2024-02-04T14:03:04;2.33;;;1.27;;
64401;SDS011;50724;42.376;23.768;2024-02-04T14:06:05;3.13;;;1.20;;
64401;SDS011;50724;42.376;23.768;2024-02-04T14:09:06;2.05;;;1.20;;
64401;SDS011;50724;42.376;23.768;2024-02-04T14:12:06;3.03;;;1.30;;
64401;SDS011;50724;42.376;23.768;2024-02-04T14:15:08;1.70;;;1.23;;
64401;SDS011;50724;42.376;23.768;2024-02-04T14:18:08;2.55;;;1.10;;
64401;SDS011;50724;42.376;23.768;2024-02-04T14:21:09;2.22;;;1.20;;
64401;SDS011;50724;42.376;23.768;2024-02-04T14:24:09;2.85;;;1.65;;
64401;SDS011;50724;42.376;23.768;2024-02-04T14:27:10;1.77;;;1.13;;
64401;SDS011;50724;42.376;23.768;2024-02-04T14:30:10;2.03;;;1.17;;
64401;SDS011;50724;42.376;23.768;2024-02-04T14:33:11;3.85;;;1.23;;
64401;SDS011;50724;42.376;23.768;2024-02-04T14:36:12;2.88;;;1.42;;
64401;SDS011;50724;42.376;23.768;2024-02-04T14:39:12;3.25;;;1.27;;
64401;SDS011;50724;42.376;23.768;2024-02-04T14:42:12;3.20;;;1.35;;
64401;SDS011;50724;42.376;23.768;2024-02-04T14:45:13;2.13;;;1.10;;
64401;SDS011;50724;42.376;23.768;2024-02-04T14:48:14;4.97;;;1.35;;
64401;SDS011;50724;42.376;23.768;2024-02-04T14:51:14;2.45;;;1.33;;
64401;SDS011;50724;42.376;23.768;2024-02-04T14:54:23;2.80;;;1.40;;
64401;SDS011;50724;42.376;23.768;2024-02-04T14:57:23;3.05;;;1.48;;
64401;SDS011;50724;42.376;23.768;2024-02-04T15:00:24;3.83;;;1.13;;
64401;SDS011;50724;42.376;23.768;2024-02-04T15:03:26;1.85;;;1.27;;
64401;SDS011;50724;42.376;23.768;2024-02-04T15:06:26;3.90;;;1.83;;
64401;SDS011;50724;42.376;23.768;2024-02-04T15:09:38;2.38;;;1.20;;
64401;SDS011;50724;42.376;23.768;2024-02-04T15:12:39;3.15;;;1.45;;
64401;SDS011;50724;42.376;23.768;2024-02-04T15:15:40;3.70;;;1.42;;
64401;SDS011;50724;42.376;23.768;2024-02-04T15:18:40;4.10;;;1.35;;
64401;SDS011;50724;42.376;23.768;2024-02-04T15:21:41;3.08;;;1.52;;
64401;SDS011;50724;42.376;23.768;2024-02-04T15:24:42;4.40;;;1.42;;
64401;SDS011;50724;42.376;23.768;2024-02-04T15:27:45;2.85;;;1.30;;
64401;SDS011;50724;42.376;23.768;2024-02-04T15:30:47;3.13;;;1.67;;
64401;SDS011;50724;42.376;23.768;2024-02-04T15:33:48;3.30;;;1.73;;
64401;SDS011;50724;42.376;23.768;2024-02-04T15:36:48;2.78;;;1.40;;
64401;SDS011;50724;42.376;23.768;2024-02-04T15:39:49;2.33;;;1.33;;
64401;SDS011;50724;42.376;23.768;2024-02-04T15:42:49;6.95;;;1.67;;
64401;SDS011;50724;42.376;23.768;2024-02-04T15:45:50;5.35;;;1.92;;
64401;SDS011;50724;42.376;23.768;2024-02-04T15:48:51;3.35;;;1.40;;
64401;SDS011;50724;42.376;23.768;2024-02-04T15:51:53;4.28;;;1.55;;
64401;SDS011;50724;42.376;23.768;2024-02-04T15:54:54;4.32;;;1.77;;
64401;SDS011;50724;42.376;23.768;2024-02-04T15:57:55;2.85;;;1.30;;
64401;SDS011;50724;42.376;23.768;2024-02-04T16:00:59;3.72;;;1.42;;
64401;SDS011;50724;42.376;23.768;2024-02-04T16:04:09;2.85;;;1.45;;
64401;SDS011;50724;42.376;23.768;2024-02-04T16:07:10;2.95;;;1.30;;
64401;SDS011;50724;42.376;23.768;2024-02-04T16:10:11;3.00;;;1.20;;
64401;SDS011;50724;42.376;23.768;2024-02-04T16:13:14;3.65;;;1.40;;
64401;SDS011;50724;42.376;23.768;2024-02-04T16:16:19;3.95;;;1.60;;
64401;SDS011;50724;42.376;23.768;2024-02-04T16:19:21;2.00;;;1.23;;
64401;SDS011;50724;42.376;23.768;2024-02-04T16:22:22;3.30;;;1.42;;
64401;SDS011;50724;42.376;23.768;2024-02-04T16:25:23;4.50;;;2.00;;
64401;SDS011;50724;42.376;23.768;2024-02-04T16:28:29;3.85;;;1.70;;
64401;SDS011;50724;42.376;23.768;2024-02-04T16:31:29;3.97;;;1.52;;
64401;SDS011;50724;42.376;23.768;2024-02-04T16:34:30;2.15;;;1.27;;
64401;SDS011;50724;42.376;23.768;2024-02-04T16:37:33;5.40;;;1.80;;
64401;SDS011;50724;42.376;23.768;2024-02-04T16:40:34;2.10;;;1.05;;
64401;SDS011;50724;42.376;23.768;2024-02-04T16:43:34;3.28;;;1.40;;
64401;SDS011;50724;42.376;23.768;2024-02-04T16:46:38;2.90;;;1.42;;
64401;SDS011;50724;42.376;23.768;2024-02-04T16:49:39;3.42;;;1.67;;
64401;SDS011;50724;42.376;23.768;2024-02-04T16:52:40;2.92;;;1.58;;
64401;SDS011;50724;42.376;23.768;2024-02-04T16:55:40;3.03;;;1.70;;
64401;SDS011;50724;42.376;23.768;2024-02-04T16:58:41;3.63;;;1.50;;
64401;SDS011;50724;42.376;23.768;2024-02-04T17:01:41;2.97;;;1.48;;
64401;SDS011;50724;42.376;23.768;2024-02-04T17:04:42;4.63;;;1.40;;
64401;SDS011;50724;42.376;23.768;2024-02-04T17:07:43;4.03;;;1.30;;
64401;SDS011;50724;42.376;23.768;2024-02-04T17:10:44;5.65;;;1.45;;
64401;SDS011;50724;42.376;23.768;2024-02-04T17:13:44;3.53;;;1.50;;
64401;SDS011;50724;42.376;23.768;2024-02-04T17:16:55;4.47;;;1.25;;
64401;SDS011;50724;42.376;23.768;2024-02-04T17:20:13;2.78;;;1.27;;
64401;SDS011;50724;42.376;23.768;2024-02-04T17:23:19;4.20;;;1.60;;
64401;SDS011;50724;42.376;23.768;2024-02-04T17:26:22;3.65;;;1.50;;
64401;SDS011;50724;42.376;23.768;2024-02-04T17:29:28;2.80;;;1.52;;
64401;SDS011;50724;42.376;23.768;2024-02-04T17:32:28;2.25;;;1.20;;
64401;SDS011;50724;42.376;23.768;2024-02-04T17:35:31;3.58;;;1.73;;
64401;SDS011;50724;42.376;23.768;2024-02-04T17:38:32;2.95;;;1.30;;
64401;SDS011;50724;42.376;23.768;2024-02-04T17:41:32;2.92;;;1.40;;
64401;SDS011;50724;42.376;23.768;2024-02-04T17:44:33;2.88;;;1.40;;
64401;SDS011;50724;42.376;23.768;2024-02-04T17:47:42;2.78;;;1.55;;
64401;SDS011;50724;42.376;23.768;2024-02-04T17:50:43;3.15;;;1.40;;
64401;SDS011;50724;42.376;23.768;2024-02-04T17:53:43;6.72;;;1.60;;
64401;SDS011;50724;42.376;23.768;2024-02-04T17:56:44;4.07;;;1.70;;
64401;SDS011;50724;42.376;23.768;2024-02-04T17:59:44;3.40;;;1.50;;
64401;SDS011;50724;42.376;23.768;2024-02-04T18:02:45;3.78;;;1.83;;
64401;SDS011;50724;42.376;23.768;2024-02-04T18:05:45;4.28;;;1.85;;
64401;SDS011;50724;42.376;23.768;2024-02-04T18:08:47;3.08;;;1.60;;
64401;SDS011;50724;42.376;23.768;2024-02-04T18:11:48;3.20;;;1.45;;
64401;SDS011;50724;42.376;23.768;2024-02-04T18:14:49;3.53;;;1.55;;
64401;SDS011;50724;42.376;23.768;2024-02-04T18:17:50;4.28;;;1.80;;
64401;SDS011;50724;42.376;23.768;2024-02-04T18:20:52;1.92;;;1.17;;
64401;SDS011;50724;42.376;23.768;2024-02-04T18:23:53;3.20;;;1.48;;